createdAt,value
2023-05-10T00:00:47.270Z,97.58
2023-05-10T00:01:47.315Z,97.72
2023-05-10T00:02:47.317Z,97.58
2023-05-10T00:03:47.307Z,97.98
2023-05-10T00:04:47.250Z,97.67
2023-05-10T00:05:47.229Z,97.88
2023-05-10T00:06:47.271Z,97.58
2023-05-10T00:07:47.251Z,98.13
2023-05-10T00:08:47.209Z,98.18
2023-05-10T00:09:47.199Z,98.28
2023-05-10T00:10:47.199Z,98.74
2023-05-10T00:11:47.196Z,98.33
2023-05-10T00:12:47.211Z,99.04
2023-05-10T00:13:47.187Z,98.33
2023-05-10T00:14:47.173Z,98.90
2023-05-10T00:15:47.176Z,98.79
2023-05-10T00:16:47.265Z,97.98
2023-05-10T00:17:47.223Z,98.14
2023-05-10T00:18:47.179Z,97.58
2023-05-10T00:19:47.150Z,97.53
2023-05-10T00:20:47.141Z,97.63
2023-05-10T00:21:47.172Z,97.07
2023-05-10T00:22:47.122Z,97.98
2023-05-10T00:23:47.178Z,97.02
2023-05-10T00:24:47.113Z,97.43
2023-05-10T00:25:47.270Z,96.62
2023-05-10T00:26:47.115Z,96.36
2023-05-10T00:27:47.311Z,97.27
2023-05-10T00:28:47.112Z,97.38
2023-05-10T00:29:47.083Z,97.11
2023-05-10T00:30:47.100Z,97.42
2023-05-10T00:31:47.113Z,98.23
2023-05-10T00:32:47.086Z,98.13
2023-05-10T00:33:47.063Z,98.63
2023-05-10T00:34:47.077Z,98.59
2023-05-10T00:35:47.025Z,98.54
2023-05-10T00:36:47.095Z,98.14
2023-05-10T00:37:47.050Z,98.03
2023-05-10T00:38:47.049Z,97.53
2023-05-10T00:39:47.058Z,98.03
2023-05-10T00:40:47.012Z,97.08
2023-05-10T00:41:48.022Z,95.76
2023-05-10T00:42:47.039Z,95.76
2023-05-10T00:43:46.994Z,95.61
2023-05-10T00:44:46.982Z,95.30
2023-05-10T00:45:47.019Z,95.20
2023-05-10T00:46:46.969Z,95.71
2023-05-10T00:47:47.044Z,95.61
2023-05-10T00:48:46.945Z,95.71
2023-05-10T00:49:46.956Z,96.07
2023-05-10T00:50:46.979Z,95.46
2023-05-10T00:51:46.945Z,95.71
2023-05-10T00:52:46.930Z,95.91
2023-05-10T00:53:46.973Z,96.66
2023-05-10T00:54:46.913Z,96.77
2023-05-10T00:55:46.927Z,97.52
2023-05-10T00:56:46.955Z,96.77
2023-05-10T00:57:46.876Z,96.97
2023-05-10T00:58:46.917Z,96.66
2023-05-10T00:59:46.886Z,96.66
2023-05-10T01:00:46.891Z,96.71
2023-05-10T01:01:46.894Z,96.91
2023-05-10T01:02:46.959Z,97.83
2023-05-10T01:03:46.871Z,97.52
2023-05-10T01:04:46.856Z,97.72
2023-05-10T01:05:46.849Z,97.62
2023-05-10T01:06:46.842Z,97.42
2023-05-10T01:07:46.894Z,97.83
2023-05-10T01:08:46.860Z,97.72
2023-05-10T01:09:46.840Z,97.62
2023-05-10T01:10:46.839Z,97.83
2023-05-10T01:11:46.807Z,98.18
2023-05-10T01:12:46.829Z,97.97
2023-05-10T01:13:46.812Z,98.03
2023-05-10T01:14:46.802Z,98.38
2023-05-10T01:15:46.802Z,98.68
2023-05-10T01:16:46.790Z,98.88
2023-05-10T01:17:46.814Z,98.63
2023-05-10T01:18:46.829Z,98.68
2023-05-10T01:19:46.755Z,98.79
2023-05-10T01:20:46.738Z,98.99
2023-05-10T01:21:46.747Z,98.38
2023-05-10T01:22:46.730Z,98.58
2023-05-10T01:23:46.798Z,98.88
2023-05-10T01:24:46.730Z,98.94
2023-05-10T01:25:46.750Z,98.63
2023-05-10T01:26:46.695Z,98.63
2023-05-10T01:27:46.704Z,98.99
2023-05-10T01:28:46.714Z,98.79
2023-05-10T01:29:46.708Z,98.94
2023-05-10T01:30:46.667Z,98.63
2023-05-10T01:31:46.751Z,98.84
2023-05-10T01:32:46.714Z,98.68
2023-05-10T01:33:46.651Z,99.19
2023-05-10T01:34:46.651Z,99.04
2023-05-10T01:35:46.690Z,98.94
2023-05-10T01:36:46.619Z,98.38
2023-05-10T01:37:46.684Z,99.08
2023-05-10T01:38:46.627Z,99.04
2023-05-10T01:39:46.627Z,98.84
2023-05-10T01:40:46.583Z,98.33
2023-05-10T01:41:46.618Z,98.18
2023-05-10T01:42:46.640Z,98.58
2023-05-10T01:43:46.593Z,98.13
2023-05-10T01:44:46.599Z,97.88
2023-05-10T01:45:46.624Z,97.52
2023-05-10T01:46:46.596Z,97.16
2023-05-10T01:47:46.614Z,98.18
2023-05-10T01:48:46.561Z,98.48
2023-05-10T01:49:46.548Z,98.18
2023-05-10T01:50:46.530Z,98.18
2023-05-10T01:51:46.558Z,98.28
2023-05-10T01:52:46.526Z,98.48
2023-05-10T01:53:46.528Z,97.97
2023-05-10T01:54:46.518Z,98.33
2023-05-10T01:55:47.504Z,98.23
2023-05-10T01:56:46.556Z,97.67
2023-05-10T01:57:46.534Z,97.47
2023-05-10T01:58:46.544Z,97.36
2023-05-10T01:59:46.487Z,97.32
2023-05-10T02:00:46.508Z,97.11
2023-05-10T02:01:46.475Z,97.11
2023-05-10T02:02:46.522Z,96.20
2023-05-10T02:03:46.502Z,96.30
2023-05-10T02:04:46.441Z,95.55
2023-05-10T02:05:46.442Z,95.65
2023-05-10T02:06:46.419Z,94.49
2023-05-10T02:07:46.455Z,94.70
2023-05-10T02:08:46.409Z,94.29
2023-05-10T02:09:46.394Z,93.18
2023-05-10T02:10:46.409Z,91.55
2023-05-10T02:11:46.388Z,91.35
2023-05-10T02:12:46.458Z,91.35
2023-05-10T02:13:46.418Z,91.35
2023-05-10T02:14:46.400Z,91.05
2023-05-10T02:15:46.387Z,90.91
2023-05-10T02:16:46.383Z,90.91
2023-05-10T02:17:46.400Z,90.80
2023-05-10T02:18:46.397Z,90.60
2023-05-10T02:19:46.384Z,90.20
2023-05-10T02:20:46.338Z,89.45
2023-05-10T02:21:46.330Z,89.18
2023-05-10T02:22:46.354Z,88.88
2023-05-10T02:23:46.308Z,88.78
2023-05-10T02:24:46.385Z,88.17
2023-05-10T02:25:46.309Z,87.46
2023-05-10T02:26:46.291Z,87.82
2023-05-10T02:27:46.314Z,87.87
2023-05-10T02:28:46.294Z,87.52
2023-05-10T02:29:46.296Z,87.66
2023-05-10T02:30:46.327Z,87.46
2023-05-10T02:31:46.321Z,87.97
2023-05-10T02:32:46.353Z,87.66
2023-05-10T02:33:46.285Z,87.77
2023-05-10T02:34:46.252Z,87.26
2023-05-10T02:35:46.243Z,87.05
2023-05-10T02:36:46.263Z,87.87
2023-05-10T02:37:46.216Z,87.87
2023-05-10T02:38:46.226Z,87.51
2023-05-10T02:39:46.207Z,87.51
2023-05-10T02:40:46.235Z,87.91
2023-05-10T02:41:46.236Z,88.21
2023-05-10T02:42:46.184Z,88.31
2023-05-10T02:43:46.171Z,88.31
2023-05-10T02:44:46.150Z,88.11
2023-05-10T02:45:46.191Z,88.62
2023-05-10T02:46:46.192Z,88.42
2023-05-10T02:47:46.159Z,88.42
2023-05-10T02:48:46.141Z,88.15
2023-05-10T02:49:46.150Z,88.56
2023-05-10T02:50:46.120Z,89.02
2023-05-10T02:51:46.182Z,89.17
2023-05-10T02:52:46.134Z,89.17
2023-05-10T02:53:46.144Z,89.17
2023-05-10T02:54:46.103Z,88.25
2023-05-10T02:55:46.084Z,88.35
2023-05-10T02:56:46.095Z,88.35
2023-05-10T02:57:46.105Z,88.46
2023-05-10T02:58:46.086Z,88.66
2023-05-10T02:59:46.068Z,88.66
2023-05-10T03:00:46.057Z,88.29
2023-05-10T03:01:46.094Z,88.40
2023-05-10T03:02:46.070Z,88.29
2023-05-10T03:03:46.027Z,88.60
2023-05-10T03:04:46.088Z,87.93
2023-05-10T03:05:46.012Z,88.34
2023-05-10T03:06:46.006Z,88.44
2023-05-10T03:07:46.039Z,88.44
2023-05-10T03:08:46.007Z,88.44
2023-05-10T03:09:45.974Z,88.54
2023-05-10T03:10:45.988Z,88.44
2023-05-10T03:11:45.981Z,88.75
2023-05-10T03:12:45.998Z,88.68
2023-05-10T03:13:46.001Z,89.04
2023-05-10T03:14:45.989Z,88.48
2023-05-10T03:15:45.956Z,89.04
2023-05-10T03:16:45.959Z,89.09
2023-05-10T03:17:45.996Z,88.84
2023-05-10T03:18:45.971Z,88.48
2023-05-10T03:19:45.930Z,88.58
2023-05-10T03:20:45.914Z,89.09
2023-05-10T03:21:45.909Z,89.19
2023-05-10T03:22:45.925Z,88.89
2023-05-10T03:23:45.923Z,88.68
2023-05-10T03:24:45.913Z,88.78
2023-05-10T03:25:45.871Z,88.68
2023-05-10T03:26:45.866Z,89.09
2023-05-10T03:27:45.878Z,88.58
2023-05-10T03:28:45.864Z,88.68
2023-05-10T03:29:45.872Z,89.29
2023-05-10T03:30:45.828Z,89.09
2023-05-10T03:31:45.913Z,88.58
2023-05-10T03:32:45.839Z,88.58
2023-05-10T03:33:45.819Z,88.58
2023-05-10T03:34:45.821Z,89.39
2023-05-10T03:35:45.828Z,89.39
2023-05-10T03:36:45.827Z,89.50
2023-05-10T03:37:45.792Z,89.39
2023-05-10T03:38:45.780Z,88.78
2023-05-10T03:39:46.784Z,89.39
2023-05-10T03:40:45.785Z,89.50
2023-05-10T03:41:45.786Z,89.90
2023-05-10T03:42:45.764Z,89.64
2023-05-10T03:43:45.760Z,89.64
2023-05-10T03:44:45.736Z,90.00
2023-05-10T03:45:45.743Z,89.59
2023-05-10T03:46:45.796Z,89.29
2023-05-10T03:47:46.743Z,88.58
2023-05-10T03:48:45.694Z,88.99
2023-05-10T03:49:45.701Z,89.29
2023-05-10T03:50:45.699Z,89.39
2023-05-10T03:51:45.702Z,89.29
2023-05-10T03:52:45.667Z,89.39
2023-05-10T03:53:45.690Z,89.59
2023-05-10T03:54:45.645Z,89.29
2023-05-10T03:55:45.645Z,89.09
2023-05-10T03:56:46.695Z,89.39
2023-05-10T03:57:45.647Z,88.99
2023-05-10T03:58:45.685Z,89.80
2023-05-10T03:59:45.674Z,89.84
2023-05-10T04:00:45.625Z,90.14
2023-05-10T04:01:45.682Z,89.84
2023-05-10T04:02:46.368Z,90.35
2023-05-10T04:03:45.731Z,90.14
2023-05-10T04:04:45.615Z,90.00
2023-05-10T04:05:45.586Z,89.70
2023-05-10T04:06:45.617Z,89.64
2023-05-10T04:07:45.577Z,90.11
2023-05-10T04:08:45.564Z,89.70
2023-05-10T04:09:45.545Z,90.00
2023-05-10T04:10:45.559Z,90.20
2023-05-10T04:11:45.572Z,89.70
2023-05-10T04:12:45.603Z,89.70
2023-05-10T04:13:45.538Z,89.70
2023-05-10T04:14:45.503Z,89.80
2023-05-10T04:15:46.562Z,89.80
2023-05-10T04:16:45.598Z,89.90
2023-05-10T04:17:45.594Z,89.70
2023-05-10T04:18:46.493Z,90.00
2023-05-10T04:19:45.494Z,89.90
2023-05-10T04:20:45.482Z,89.59
2023-05-10T04:21:45.493Z,89.59
2023-05-10T04:22:45.469Z,89.39
2023-05-10T04:23:45.461Z,89.70
2023-05-10T04:24:45.476Z,89.09
2023-05-10T04:25:45.425Z,89.96
2023-05-10T04:26:45.466Z,89.65
2023-05-10T04:27:45.426Z,89.86
2023-05-10T04:28:45.461Z,90.16
2023-05-10T04:29:45.421Z,89.65
2023-05-10T04:30:45.520Z,89.76
2023-05-10T04:31:45.414Z,89.55
2023-05-10T04:32:45.417Z,89.41
2023-05-10T04:33:45.420Z,89.04
2023-05-10T04:34:45.397Z,89.04
2023-05-10T04:35:45.402Z,89.45
2023-05-10T04:36:45.355Z,89.04
2023-05-10T04:37:45.361Z,89.25
2023-05-10T04:38:45.399Z,88.54
2023-05-10T04:39:45.348Z,88.54
2023-05-10T04:40:45.338Z,88.64
2023-05-10T04:41:45.317Z,88.80
2023-05-10T04:42:45.309Z,88.84
2023-05-10T04:43:45.309Z,88.70
2023-05-10T04:44:45.306Z,88.54
2023-05-10T04:45:45.317Z,88.84
2023-05-10T04:46:45.308Z,88.75
2023-05-10T04:47:45.327Z,88.23
2023-05-10T04:48:45.274Z,88.75
2023-05-10T04:49:45.268Z,87.83
2023-05-10T04:50:45.292Z,87.79
2023-05-10T04:51:45.235Z,88.20
2023-05-10T04:52:45.251Z,88.34
2023-05-10T04:53:48.582Z,87.99
2023-05-10T04:54:47.232Z,88.03
2023-05-10T04:55:45.237Z,87.73
2023-05-10T04:56:45.216Z,87.43
2023-05-10T04:57:45.196Z,87.73
2023-05-10T04:58:45.434Z,88.34
2023-05-10T04:59:45.197Z,88.03
2023-05-10T05:00:45.188Z,87.12
2023-05-10T05:01:45.246Z,87.12
2023-05-10T05:02:45.231Z,87.93
2023-05-10T05:03:45.282Z,88.03
2023-05-10T05:04:46.182Z,87.73
2023-05-10T05:05:45.157Z,88.23
2023-05-10T05:06:45.122Z,87.73
2023-05-10T05:07:45.167Z,88.44
2023-05-10T05:08:45.125Z,88.44
2023-05-10T05:09:45.102Z,88.23
2023-05-10T05:10:45.156Z,87.48
2023-05-10T05:11:45.235Z,87.63
2023-05-10T05:12:45.136Z,88.03
2023-05-10T05:13:45.082Z,87.83
2023-05-10T05:14:45.112Z,88.44
2023-05-10T05:15:45.065Z,88.44
2023-05-10T05:16:45.197Z,88.23
2023-05-10T05:17:46.144Z,88.23
2023-05-10T05:18:45.608Z,88.34
2023-05-10T05:19:45.069Z,88.28
2023-05-10T05:20:45.047Z,88.34
2023-05-10T05:21:45.050Z,88.28
2023-05-10T05:22:45.090Z,88.34
2023-05-10T05:23:45.075Z,88.75
2023-05-10T05:24:45.058Z,88.54
2023-05-10T05:25:44.983Z,88.44
2023-05-10T05:26:45.133Z,88.13
2023-05-10T05:27:44.984Z,88.18
2023-05-10T05:28:45.024Z,88.48
2023-05-10T05:29:44.995Z,88.38
2023-05-10T05:30:44.966Z,88.58
2023-05-10T05:31:44.984Z,88.28
2023-05-10T05:32:44.963Z,88.38
2023-05-10T05:33:44.941Z,87.63
2023-05-10T05:34:44.943Z,88.34
2023-05-10T05:35:44.918Z,88.34
2023-05-10T05:36:45.066Z,88.34
2023-05-10T05:37:44.902Z,88.95
2023-05-10T05:38:44.891Z,88.23
2023-05-10T05:39:44.877Z,88.44
2023-05-10T05:40:44.935Z,87.93
2023-05-10T05:41:44.887Z,87.93
2023-05-10T05:42:44.888Z,87.83
2023-05-10T05:43:44.888Z,87.22
2023-05-10T05:44:44.891Z,87.32
2023-05-10T05:45:44.908Z,87.63
2023-05-10T05:46:44.876Z,87.52
2023-05-10T05:47:44.900Z,87.52
2023-05-10T05:48:44.835Z,87.22
2023-05-10T05:49:44.925Z,87.43
2023-05-10T05:50:44.799Z,87.12
2023-05-10T05:51:44.830Z,87.63
2023-05-10T05:52:44.986Z,86.91
2023-05-10T05:53:44.794Z,86.91
2023-05-10T05:54:44.859Z,87.32
2023-05-10T05:55:44.773Z,86.68
2023-05-10T05:56:44.806Z,86.88
2023-05-10T05:57:44.762Z,86.98
2023-05-10T05:58:44.850Z,86.88
2023-05-10T05:59:44.772Z,86.88
2023-05-10T06:00:44.767Z,86.88
2023-05-10T06:01:44.778Z,87.08
2023-05-10T06:02:45.002Z,86.73
2023-05-10T06:03:44.800Z,86.27
2023-05-10T06:04:44.960Z,86.53
2023-05-10T06:05:45.752Z,86.83
2023-05-10T06:06:44.754Z,86.63
2023-05-10T06:07:44.750Z,86.63
2023-05-10T06:08:44.700Z,86.63
2023-05-10T06:09:44.692Z,86.43
2023-05-10T06:10:44.698Z,86.22
2023-05-10T06:11:44.688Z,85.82
2023-05-10T06:12:44.723Z,85.42
2023-05-10T06:13:44.652Z,85.62
2023-05-10T06:14:44.650Z,86.02
2023-05-10T06:15:44.650Z,85.72
2023-05-10T06:16:44.689Z,85.68
2023-05-10T06:17:44.658Z,86.13
2023-05-10T06:18:45.627Z,85.72
2023-05-10T06:19:44.652Z,86.08
2023-05-10T06:20:44.620Z,85.88
2023-05-10T06:21:44.666Z,86.59
2023-05-10T06:22:44.602Z,86.49
2023-05-10T06:23:44.603Z,85.38
2023-05-10T06:24:44.599Z,84.27
2023-05-10T06:25:44.582Z,85.58
2023-05-10T06:26:44.568Z,85.58
2023-05-10T06:27:46.489Z,85.99
2023-05-10T06:28:44.596Z,85.88
2023-05-10T06:29:44.636Z,85.07
2023-05-10T06:30:44.586Z,85.17
2023-05-10T06:31:44.632Z,84.87
2023-05-10T06:32:44.644Z,85.38
2023-05-10T06:33:44.535Z,85.68
2023-05-10T06:34:44.553Z,85.58
2023-05-10T06:35:44.515Z,85.17
2023-05-10T06:36:44.515Z,84.16
2023-05-10T06:37:44.512Z,84.87
2023-05-10T06:38:44.545Z,85.68
2023-05-10T06:39:44.524Z,84.36
2023-05-10T06:40:44.481Z,84.36
2023-05-10T06:41:44.464Z,85.33
2023-05-10T06:42:44.478Z,85.03
2023-05-10T06:43:44.480Z,84.53
2023-05-10T06:44:44.424Z,84.22
2023-05-10T06:45:44.465Z,84.22
2023-05-10T06:46:44.533Z,83.92
2023-05-10T06:47:44.515Z,84.33
2023-05-10T06:48:44.425Z,84.12
2023-05-10T06:49:44.481Z,84.53
2023-05-10T06:50:44.399Z,84.42
2023-05-10T06:51:44.446Z,84.47
2023-05-10T06:52:45.427Z,84.22
2023-05-10T06:53:44.407Z,84.42
2023-05-10T06:54:44.460Z,84.33
2023-05-10T06:55:44.440Z,84.63
2023-05-10T06:56:44.371Z,84.22
2023-05-10T06:57:44.380Z,84.33
2023-05-10T06:58:44.376Z,84.42
2023-05-10T06:59:44.388Z,85.24
2023-05-10T07:00:44.409Z,84.19
2023-05-10T07:01:44.374Z,84.22
2023-05-10T07:02:44.376Z,83.68
2023-05-10T07:03:44.311Z,83.82
2023-05-10T07:04:44.414Z,83.72
2023-05-10T07:05:44.458Z,83.82
2023-05-10T07:06:44.315Z,84.12
2023-05-10T07:07:44.310Z,84.53
2023-05-10T07:08:44.516Z,84.47
2023-05-10T07:09:44.295Z,84.36
2023-05-10T07:10:44.291Z,84.67
2023-05-10T07:11:44.419Z,84.56
2023-05-10T07:12:44.375Z,84.33
2023-05-10T07:13:44.306Z,85.24
2023-05-10T07:14:44.251Z,85.44
2023-05-10T07:15:44.314Z,84.33
2023-05-10T07:16:44.447Z,84.63
2023-05-10T07:17:45.792Z,84.53
2023-05-10T07:18:44.218Z,84.53
2023-05-10T07:19:44.250Z,84.42
2023-05-10T07:20:44.203Z,84.93
2023-05-10T07:21:44.279Z,84.12
2023-05-10T07:22:44.186Z,84.12
2023-05-10T07:23:45.154Z,84.12
2023-05-10T07:24:45.337Z,84.53
2023-05-10T07:25:44.186Z,84.22
2023-05-10T07:26:44.212Z,84.39
2023-05-10T07:27:44.177Z,84.63
2023-05-10T07:28:44.144Z,84.39
2023-05-10T07:29:44.169Z,84.34
2023-05-10T07:30:44.155Z,84.19
2023-05-10T07:31:44.155Z,84.14
2023-05-10T07:32:44.268Z,84.19
2023-05-10T07:33:44.111Z,83.94
2023-05-10T07:34:44.115Z,83.94
2023-05-10T07:35:44.129Z,83.13
2023-05-10T07:36:44.084Z,82.89
2023-05-10T07:37:44.093Z,82.69
2023-05-10T07:38:44.095Z,82.49
2023-05-10T07:39:44.084Z,82.79
2023-05-10T07:40:44.075Z,81.78
2023-05-10T07:41:44.051Z,81.57
2023-05-10T07:42:44.069Z,81.57
2023-05-10T07:43:44.077Z,82.04
2023-05-10T07:44:44.070Z,81.13
2023-05-10T07:45:44.051Z,81.60
2023-05-10T07:46:44.027Z,80.99
2023-05-10T07:47:44.175Z,80.45
2023-05-10T07:48:44.036Z,80.85
2023-05-10T07:49:44.021Z,80.98
2023-05-10T07:50:44.980Z,79.77
2023-05-10T07:51:43.974Z,78.42
2023-05-10T07:52:43.980Z,78.02
2023-05-10T07:53:44.070Z,79.03
2023-05-10T07:54:43.976Z,77.38
2023-05-10T07:55:43.992Z,77.98
2023-05-10T07:56:43.970Z,76.97
2023-05-10T07:57:44.126Z,76.31
2023-05-10T07:58:43.950Z,76.71
2023-05-10T07:59:43.943Z,77.21
2023-05-10T08:00:43.937Z,76.20
2023-05-10T08:01:43.964Z,76.61
2023-05-10T08:02:44.009Z,75.90
2023-05-10T08:03:43.973Z,77.25
2023-05-10T08:04:44.042Z,77.45
2023-05-10T08:05:43.910Z,77.28
2023-05-10T08:06:43.901Z,76.58
2023-05-10T08:07:43.909Z,78.26
2023-05-10T08:08:43.901Z,78.50
2023-05-10T08:09:43.872Z,77.04
2023-05-10T08:10:43.886Z,77.35
2023-05-10T08:11:43.873Z,78.22
2023-05-10T08:12:44.014Z,78.02
2023-05-10T08:13:43.877Z,77.31
2023-05-10T08:14:43.871Z,77.78
2023-05-10T08:15:43.885Z,76.84
2023-05-10T08:16:43.848Z,75.79
2023-05-10T08:17:43.833Z,75.29
2023-05-10T08:18:43.868Z,76.56
2023-05-10T08:19:43.810Z,73.81
2023-05-10T08:20:43.787Z,71.50
2023-05-10T08:21:43.842Z,73.27
2023-05-10T08:22:43.821Z,73.88
2023-05-10T08:23:43.869Z,73.24
2023-05-10T08:24:43.842Z,71.60
2023-05-10T08:25:43.763Z,72.10
2023-05-10T08:26:43.772Z,71.06
2023-05-10T08:27:43.751Z,70.86
2023-05-10T08:28:43.779Z,70.63
2023-05-10T08:29:50.077Z,70.53
2023-05-10T08:30:45.789Z,68.22
2023-05-10T08:31:43.865Z,68.42
2023-05-10T08:32:43.774Z,67.42
2023-05-10T08:33:44.502Z,67.65
2023-05-10T08:34:44.734Z,69.59
2023-05-10T08:35:43.711Z,68.18
2023-05-10T08:36:43.690Z,69.69
2023-05-10T08:37:43.696Z,70.43
2023-05-10T08:38:43.757Z,69.32
2023-05-10T08:39:43.752Z,69.45
2023-05-10T08:40:43.714Z,69.25
2023-05-10T08:41:43.680Z,70.66
2023-05-10T08:42:43.678Z,68.38
2023-05-10T08:43:43.678Z,69.92
2023-05-10T08:44:43.699Z,70.43
2023-05-10T08:45:43.661Z,69.96
2023-05-10T08:46:43.695Z,70.73
2023-05-10T08:47:43.665Z,71.23
2023-05-10T08:48:43.637Z,71.36
2023-05-10T08:49:43.657Z,70.12
2023-05-10T08:50:44.636Z,70.29
2023-05-10T08:51:43.935Z,70.50
2023-05-10T08:52:43.676Z,67.48
2023-05-10T08:53:43.644Z,67.38
2023-05-10T08:54:43.606Z,67.18
2023-05-10T08:55:43.629Z,68.52
2023-05-10T08:56:43.629Z,68.32
2023-05-10T08:57:43.707Z,69.49
2023-05-10T08:58:43.563Z,69.85
2023-05-10T08:59:43.600Z,69.73
2023-05-10T09:00:43.670Z,70.39
2023-05-10T09:01:43.582Z,69.46
2023-05-10T09:02:43.598Z,67.45
2023-05-10T09:03:43.570Z,67.12
2023-05-10T09:04:43.632Z,64.31
2023-05-10T09:05:43.562Z,66.89
2023-05-10T09:06:43.529Z,63.45
2023-05-10T09:07:43.565Z,65.85
2023-05-10T09:08:43.564Z,65.38
2023-05-10T09:09:43.534Z,64.45
2023-05-10T09:10:43.546Z,65.05
2023-05-10T09:11:43.498Z,65.05
2023-05-10T09:12:43.542Z,67.25
2023-05-10T09:13:43.505Z,63.11
2023-05-10T09:14:43.487Z,65.45
2023-05-10T09:15:43.518Z,67.02
2023-05-10T09:16:43.528Z,65.95
2023-05-10T09:17:44.000Z,64.34
2023-05-10T09:18:43.497Z,64.75
2023-05-10T09:19:43.432Z,64.75
2023-05-10T09:20:43.431Z,64.75
2023-05-10T09:21:43.486Z,65.28
2023-05-10T09:22:43.435Z,63.25
2023-05-10T09:23:43.430Z,65.83
2023-05-10T09:24:43.417Z,64.62
2023-05-10T09:25:43.555Z,66.49
2023-05-10T09:26:43.441Z,61.76
2023-05-10T09:27:43.475Z,62.37
2023-05-10T09:28:43.417Z,60.74
2023-05-10T09:29:43.427Z,60.53
2023-05-10T09:30:43.420Z,60.80
2023-05-10T09:31:43.404Z,60.83
2023-05-10T09:32:43.507Z,61.21
2023-05-10T09:33:43.377Z,59.74
2023-05-10T09:34:43.349Z,61.63
2023-05-10T09:35:43.378Z,61.09
2023-05-10T09:36:43.344Z,60.82
2023-05-10T09:37:44.429Z,62.42
2023-05-10T09:38:43.358Z,62.62
2023-05-10T09:39:43.337Z,63.39
2023-05-10T09:40:43.355Z,63.76
2023-05-10T09:41:43.305Z,63.06
2023-05-10T09:42:43.312Z,63.17
2023-05-10T09:43:43.368Z,62.56
2023-05-10T09:44:43.313Z,61.09
2023-05-10T09:45:43.296Z,64.39
2023-05-10T09:46:43.348Z,65.46
2023-05-10T09:47:43.396Z,63.06
2023-05-10T09:48:43.300Z,65.06
2023-05-10T09:49:43.333Z,65.63
2023-05-10T09:50:43.258Z,64.43
2023-05-10T09:51:43.256Z,63.20
2023-05-10T09:52:43.233Z,64.20
2023-05-10T09:53:43.256Z,63.63
2023-05-10T09:54:43.260Z,65.36
2023-05-10T09:55:43.238Z,64.39
2023-05-10T09:56:43.202Z,63.92
2023-05-10T09:57:43.214Z,68.19
2023-05-10T09:58:43.202Z,67.22
2023-05-10T09:59:43.268Z,66.95
2023-05-10T10:00:43.234Z,68.29
2023-05-10T10:01:43.208Z,70.73
2023-05-10T10:02:43.234Z,69.56
2023-05-10T10:03:43.175Z,69.69
2023-05-10T10:04:43.246Z,68.68
2023-05-10T10:05:43.189Z,68.65
2023-05-10T10:06:43.239Z,68.55
2023-05-10T10:07:43.156Z,71.26
2023-05-10T10:08:43.151Z,71.03
2023-05-10T10:09:43.168Z,71.26
2023-05-10T10:10:43.127Z,69.46
2023-05-10T10:11:43.148Z,67.45
2023-05-10T10:12:43.123Z,67.49
2023-05-10T10:13:43.114Z,67.32
2023-05-10T10:14:43.098Z,70.09
2023-05-10T10:15:43.103Z,70.09
2023-05-10T10:16:55.496Z,69.89
2023-05-10T10:17:45.117Z,69.39
2023-05-10T10:18:43.135Z,70.09
2023-05-10T10:19:43.057Z,71.20
2023-05-10T10:20:43.031Z,71.30
2023-05-10T10:21:43.424Z,71.70
2023-05-10T10:22:43.070Z,71.03
2023-05-10T10:23:43.023Z,70.53
2023-05-10T10:24:43.093Z,69.79
2023-05-10T10:25:43.094Z,70.29
2023-05-10T10:26:42.993Z,71.30
2023-05-10T10:27:43.042Z,71.23
2023-05-10T10:28:43.065Z,71.33
2023-05-10T10:29:43.021Z,69.22
2023-05-10T10:30:43.034Z,69.53
2023-05-10T10:31:43.021Z,69.79
2023-05-10T10:32:43.079Z,70.43
2023-05-10T10:33:42.997Z,68.89
2023-05-10T10:34:42.977Z,66.82
2023-05-10T10:35:43.034Z,66.99
2023-05-10T10:36:42.971Z,68.46
2023-05-10T10:37:42.955Z,67.03
2023-05-10T10:38:42.951Z,63.36
2023-05-10T10:39:42.945Z,62.63
2023-05-10T10:40:43.019Z,62.04
2023-05-10T10:41:42.897Z,62.04
2023-05-10T10:42:42.971Z,60.91
2023-05-10T10:43:42.943Z,61.18
2023-05-10T10:44:42.912Z,60.71
2023-05-10T10:45:42.877Z,60.48
2023-05-10T10:46:42.946Z,60.08
2023-05-10T10:47:42.891Z,60.91
2023-05-10T10:48:42.924Z,61.13
2023-05-10T10:49:42.894Z,58.84
2023-05-10T10:50:42.828Z,59.04
2023-05-10T10:51:42.819Z,59.31
2023-05-10T10:52:42.907Z,62.50
2023-05-10T10:53:42.866Z,60.93
2023-05-10T10:54:42.886Z,60.71
2023-05-10T10:55:42.806Z,60.63
2023-05-10T10:56:42.793Z,61.24
2023-05-10T10:57:42.825Z,59.66
2023-05-10T10:58:42.814Z,58.86
2023-05-10T10:59:42.802Z,60.96
2023-05-10T11:00:42.790Z,59.49
2023-05-10T11:01:42.778Z,60.49
2023-05-10T11:02:42.756Z,60.82
2023-05-10T11:03:42.748Z,62.29
2023-05-10T11:04:42.786Z,62.99
2023-05-10T11:05:42.803Z,63.06
2023-05-10T11:06:42.740Z,62.46
2023-05-10T11:07:42.742Z,60.27
2023-05-10T11:08:42.697Z,60.06
2023-05-10T11:09:42.741Z,60.33
2023-05-10T11:10:42.696Z,62.63
2023-05-10T11:11:42.717Z,62.13
2023-05-10T11:12:42.666Z,61.33
2023-05-10T11:13:42.714Z,61.36
2023-05-10T11:14:42.706Z,61.40
2023-05-10T11:15:42.688Z,60.59
2023-05-10T11:16:42.744Z,62.35
2023-05-10T11:17:42.688Z,64.51
2023-05-10T11:18:42.693Z,65.35
2023-05-10T11:19:42.628Z,67.11
2023-05-10T11:20:42.694Z,67.25
2023-05-10T11:21:42.632Z,68.59
2023-05-10T11:22:42.626Z,70.43
2023-05-10T11:23:42.598Z,69.85
2023-05-10T11:24:42.611Z,70.09
2023-05-10T11:25:42.626Z,70.19
2023-05-10T11:26:42.623Z,70.63
2023-05-10T11:27:42.591Z,71.94
2023-05-10T11:28:42.565Z,74.29
2023-05-10T11:29:42.578Z,74.38
2023-05-10T11:30:42.651Z,76.10
2023-05-10T11:31:42.594Z,76.54
2023-05-10T11:32:42.602Z,76.64
2023-05-10T11:33:42.546Z,77.84
2023-05-10T11:34:42.728Z,76.27
2023-05-10T11:35:43.550Z,76.87
2023-05-10T11:36:43.578Z,75.96
2023-05-10T11:37:42.516Z,76.47
2023-05-10T11:38:42.520Z,76.77
2023-05-10T11:39:42.555Z,77.48
2023-05-10T11:40:42.540Z,77.88
2023-05-10T11:41:43.129Z,78.39
2023-05-10T11:42:43.493Z,78.99
2023-05-10T11:43:43.476Z,79.80
2023-05-10T11:44:42.513Z,80.13
2023-05-10T11:45:42.518Z,80.51
2023-05-10T11:46:42.625Z,80.62
2023-05-10T11:47:42.878Z,81.52
2023-05-10T11:48:43.523Z,79.67
2023-05-10T11:49:42.450Z,80.58
2023-05-10T11:50:42.447Z,80.78
2023-05-10T11:51:42.439Z,81.38
2023-05-10T11:52:43.193Z,81.93
2023-05-10T11:53:42.433Z,83.42
2023-05-10T11:54:42.401Z,84.33
2023-05-10T11:55:42.465Z,83.52
2023-05-10T11:56:42.401Z,84.23
2023-05-10T11:57:42.418Z,84.03
2023-05-10T11:58:42.387Z,85.22
2023-05-10T11:59:43.271Z,86.07
2023-05-10T12:00:43.367Z,86.87
2023-05-10T12:01:42.430Z,86.71
2023-05-10T12:02:42.448Z,85.70
2023-05-10T12:03:42.595Z,86.16
2023-05-10T12:04:42.407Z,86.35
2023-05-10T12:05:43.040Z,85.17
2023-05-10T12:06:43.408Z,85.24
2023-05-10T12:07:42.514Z,85.84
2023-05-10T12:08:42.354Z,86.31
2023-05-10T12:09:44.230Z,85.36
2023-05-10T12:10:43.333Z,86.37
2023-05-10T12:11:44.186Z,86.73
2023-05-10T12:12:43.309Z,85.62
2023-05-10T12:13:42.311Z,83.96
2023-05-10T12:14:42.298Z,84.17
2023-05-10T12:15:42.338Z,84.47
2023-05-10T12:16:42.345Z,83.80
2023-05-10T12:17:43.546Z,83.80
2023-05-10T12:18:43.288Z,84.17
2023-05-10T12:19:42.277Z,84.17
2023-05-10T12:20:42.408Z,86.53
2023-05-10T12:21:42.260Z,84.34
2023-05-10T12:22:42.272Z,84.04
2023-05-10T12:23:42.209Z,85.22
2023-05-10T12:24:42.227Z,85.28
2023-05-10T12:25:42.220Z,84.23
2023-05-10T12:26:42.289Z,84.83
2023-05-10T12:27:42.218Z,82.41
2023-05-10T12:28:42.254Z,83.62
2023-05-10T12:29:42.831Z,83.84
2023-05-10T12:30:43.200Z,83.70
2023-05-10T12:31:43.233Z,81.62
2023-05-10T12:32:42.310Z,85.05
2023-05-10T12:33:42.171Z,85.96
2023-05-10T12:34:42.227Z,81.67
2023-05-10T12:35:43.128Z,83.88
2023-05-10T12:36:43.172Z,80.76
2023-05-10T12:37:42.164Z,83.34
2023-05-10T12:38:42.200Z,82.09
2023-05-10T12:39:42.290Z,82.25
2023-05-10T12:40:42.197Z,83.12
2023-05-10T12:41:43.591Z,79.90
2023-05-10T12:42:43.207Z,81.85
2023-05-10T12:43:42.177Z,83.22
2023-05-10T12:44:42.176Z,80.20
2023-05-10T12:45:42.205Z,81.81
2023-05-10T12:46:42.119Z,80.66
2023-05-10T12:47:43.961Z,79.05
2023-05-10T12:48:43.158Z,78.01
2023-05-10T12:49:42.121Z,80.70
2023-05-10T12:50:42.116Z,81.95
2023-05-10T12:51:42.213Z,80.58
2023-05-10T12:52:42.094Z,84.15